createdAt,value
2019-03-29T00:00:06.122Z,8.03
2019-03-29T00:02:39.608Z,8.93
2019-03-29T00:05:11.330Z,8.70
2019-03-29T00:07:44.487Z,8.97
2019-03-29T00:10:15.712Z,9.30
2019-03-29T00:12:52.537Z,9.47
2019-03-29T00:15:24.221Z,9.30
2019-03-29T00:17:55.519Z,9.30
2019-03-29T00:20:26.987Z,8.83
2019-03-29T00:22:58.877Z,9.20
2019-03-29T00:25:33.015Z,9.27
2019-03-29T00:28:07.296Z,8.80
2019-03-29T00:30:39.854Z,8.97
2019-03-29T00:33:11.829Z,8.80
2019-03-29T00:35:44.452Z,8.17
2019-03-29T00:38:16.433Z,8.37
2019-03-29T00:40:48.761Z,8.53
2019-03-29T00:43:20.324Z,8.87
2019-03-29T00:45:52.321Z,8.97
2019-03-29T00:48:24.184Z,9.33
2019-03-29T00:50:59.015Z,8.90
2019-03-29T00:53:31.417Z,9.33
2019-03-29T00:56:04.141Z,9.10
2019-03-29T00:58:35.585Z,8.37
2019-03-29T01:01:07.107Z,9.20
2019-03-29T01:03:39.451Z,8.00
2019-03-29T01:06:10.761Z,9.47
2019-03-29T01:08:43.008Z,8.70
2019-03-29T01:11:14.911Z,8.50
2019-03-29T01:13:46.360Z,8.30
2019-03-29T01:16:17.619Z,8.60
2019-03-29T01:18:48.887Z,8.60
2019-03-29T01:21:21.760Z,9.60
2019-03-29T01:23:53.178Z,8.93
2019-03-29T01:26:24.794Z,9.00
2019-03-29T01:29:05.720Z,8.93
2019-03-29T01:31:37.819Z,8.07
2019-03-29T01:34:11.961Z,7.80
2019-03-29T01:36:46.008Z,7.70
2019-03-29T01:39:17.504Z,7.70
2019-03-29T01:42:03.674Z,8.30
2019-03-29T01:44:38.003Z,7.37
2019-03-29T01:47:11.048Z,7.50
2019-03-29T01:49:46.396Z,7.17
2019-03-29T01:52:19.314Z,7.87
2019-03-29T01:54:52.928Z,7.80
2019-03-29T01:57:25.121Z,7.60
2019-03-29T01:59:58.534Z,7.50
2019-03-29T02:02:31.121Z,8.67
2019-03-29T02:05:03.260Z,8.07
2019-03-29T02:07:35.321Z,8.60
2019-03-29T02:10:10.279Z,8.17
2019-03-29T02:12:43.030Z,8.70
2019-03-29T02:15:22.011Z,8.77
2019-03-29T02:17:53.324Z,8.27
2019-03-29T02:20:28.007Z,10.03
2019-03-29T02:23:01.857Z,9.50
2019-03-29T02:25:35.772Z,9.53
2019-03-29T02:28:09.801Z,8.83
2019-03-29T02:30:51.558Z,9.47
2019-03-29T02:33:27.506Z,9.43
2019-03-29T02:36:02.907Z,9.63
2019-03-29T02:38:54.089Z,10.23
2019-03-29T02:41:14.512Z,9.90
2019-03-29T02:43:47.236Z,9.97
2019-03-29T02:46:21.384Z,10.83
2019-03-29T02:48:56.541Z,9.97
2019-03-29T02:51:32.890Z,10.50
2019-03-29T02:54:04.524Z,10.70
2019-03-29T02:56:42.331Z,11.30
2019-03-29T02:59:17.259Z,11.17
2019-03-29T03:01:50.682Z,12.43
2019-03-29T03:04:22.410Z,12.07
2019-03-29T03:06:54.464Z,12.33
2019-03-29T03:09:27.619Z,13.13
2019-03-29T03:12:00.111Z,12.73
2019-03-29T03:14:32.750Z,13.10
2019-03-29T03:17:05.051Z,13.30
2019-03-29T03:19:36.346Z,13.90
2019-03-29T03:22:09.598Z,14.63
2019-03-29T03:24:40.843Z,13.40
2019-03-29T03:27:12.106Z,15.67
2019-03-29T03:29:47.560Z,15.57
2019-03-29T03:32:18.650Z,15.20
2019-03-29T03:34:51.474Z,14.63
2019-03-29T03:37:22.954Z,15.60
2019-03-29T03:39:58.888Z,15.50
2019-03-29T03:42:30.693Z,14.47
2019-03-29T03:45:02.766Z,14.33
2019-03-29T03:47:35.750Z,13.27
2019-03-29T03:50:08.073Z,14.40
2019-03-29T03:52:39.429Z,14.87
2019-03-29T03:55:11.192Z,13.83
2019-03-29T03:57:44.252Z,14.50
2019-03-29T04:00:18.909Z,14.40
2019-03-29T04:02:50.206Z,13.07
2019-03-29T04:05:25.242Z,13.87
2019-03-29T04:08:02.267Z,13.27
2019-03-29T04:10:33.959Z,13.87
2019-03-29T04:13:06.765Z,13.27
2019-03-29T04:15:39.576Z,13.90
2019-03-29T04:18:15.516Z,13.97
2019-03-29T04:20:45.049Z,14.43
2019-03-29T04:23:16.301Z,13.90
2019-03-29T04:25:48.547Z,14.27
2019-03-29T04:28:21.569Z,14.17
2019-03-29T04:30:54.284Z,13.90
2019-03-29T04:33:27.174Z,14.07
2019-03-29T04:36:01.888Z,12.73
2019-03-29T04:38:38.880Z,13.50
2019-03-29T04:41:10.156Z,13.10
2019-03-29T04:43:43.875Z,12.93
2019-03-29T04:46:15.905Z,11.97
2019-03-29T04:48:47.142Z,13.27
2019-03-29T04:51:19.714Z,14.97
2019-03-29T04:53:51.098Z,12.23
2019-03-29T04:56:22.382Z,13.60
2019-03-29T04:58:54.639Z,13.53
2019-03-29T05:01:26.372Z,13.37
2019-03-29T05:03:57.923Z,14.80
2019-03-29T05:06:31.613Z,14.50
2019-03-29T05:09:02.958Z,15.10
2019-03-29T05:11:34.225Z,14.93
2019-03-29T05:14:07.059Z,13.23
2019-03-29T05:16:40.380Z,13.13
2019-03-29T05:19:12.450Z,13.47
2019-03-29T05:21:50.171Z,12.83
2019-03-29T05:24:22.820Z,13.77
2019-03-29T05:26:54.904Z,13.57
2019-03-29T05:29:26.251Z,16.13
2019-03-29T05:31:57.629Z,16.93
2019-03-29T05:34:31.049Z,17.97
2019-03-29T05:37:09.658Z,16.77
2019-03-29T05:39:41.129Z,20.03
2019-03-29T05:42:12.618Z,19.40
2019-03-29T05:44:45.646Z,20.10
2019-03-29T05:47:17.288Z,19.20
2019-03-29T05:50:04.726Z,18.43
2019-03-29T05:52:37.344Z,18.57
2019-03-29T05:55:11.190Z,19.57
2019-03-29T05:57:43.746Z,19.47
2019-03-29T06:00:18.312Z,19.20
2019-03-29T06:02:50.398Z,18.63
2019-03-29T06:05:22.906Z,17.20
2019-03-29T06:07:54.917Z,16.83
2019-03-29T06:10:26.151Z,17.03
2019-03-29T06:13:00.007Z,16.17
2019-03-29T06:15:32.372Z,15.90
2019-03-29T06:18:06.227Z,15.23
2019-03-29T06:20:39.364Z,14.67
2019-03-29T06:23:11.365Z,14.47
2019-03-29T06:25:45.215Z,12.97
2019-03-29T06:28:16.566Z,13.07
2019-03-29T06:30:49.499Z,12.40
2019-03-29T06:33:22.147Z,11.97
2019-03-29T06:35:56.620Z,11.80
2019-03-29T06:38:32.686Z,10.87
2019-03-29T06:41:04.782Z,9.80
2019-03-29T06:43:36.082Z,11.37
2019-03-29T06:46:07.332Z,9.87
2019-03-29T06:48:39.118Z,9.83
2019-03-29T06:51:12.401Z,9.30
2019-03-29T06:53:45.254Z,9.67
2019-03-29T06:56:16.505Z,10.37
2019-03-29T06:58:47.974Z,10.20
2019-03-29T07:01:20.232Z,10.00
2019-03-29T07:03:53.332Z,9.70
2019-03-29T07:06:24.825Z,9.27
2019-03-29T07:08:56.645Z,9.47
2019-03-29T07:11:27.951Z,9.60
2019-03-29T07:13:59.529Z,9.73
2019-03-29T07:16:31.539Z,10.77
2019-03-29T07:19:05.005Z,12.10
2019-03-29T07:21:35.891Z,11.90
2019-03-29T07:24:07.171Z,13.13
2019-03-29T07:26:39.710Z,12.60
2019-03-29T07:29:11.601Z,12.27
2019-03-29T07:31:44.059Z,12.13
2019-03-29T07:34:15.518Z,14.13
2019-03-29T07:36:48.217Z,12.80
2019-03-29T07:39:20.821Z,12.30
2019-03-29T07:41:52.398Z,14.33
2019-03-29T07:44:25.364Z,13.33
2019-03-29T07:46:57.716Z,13.97
2019-03-29T07:49:31.009Z,13.73
2019-03-29T07:52:02.996Z,13.83
2019-03-29T07:54:34.339Z,14.00
2019-03-29T07:57:05.610Z,14.00
2019-03-29T07:59:38.236Z,14.33
2019-03-29T08:02:10.459Z,14.50
2019-03-29T08:04:42.026Z,14.23
2019-03-29T08:07:26.281Z,14.70
2019-03-29T08:09:46.933Z,14.00
2019-03-29T08:12:19.280Z,14.23
2019-03-29T08:14:51.480Z,13.70
2019-03-29T08:17:23.921Z,14.23
2019-03-29T08:20:24.490Z,14.77
2019-03-29T08:22:30.095Z,13.97
2019-03-29T08:25:03.254Z,15.10
2019-03-29T08:27:34.557Z,14.97
2019-03-29T08:30:07.051Z,15.37
2019-03-29T08:32:38.367Z,14.73
2019-03-29T08:35:09.859Z,14.77
2019-03-29T08:37:41.573Z,14.63
2019-03-29T08:40:12.955Z,14.60
2019-03-29T08:42:44.380Z,14.30
2019-03-29T08:45:15.738Z,14.47
2019-03-29T08:47:47.000Z,14.90
2019-03-29T08:50:19.610Z,14.27
2019-03-29T08:52:52.457Z,13.20
2019-03-29T08:55:24.718Z,13.60
2019-03-29T08:57:57.375Z,13.37
2019-03-29T09:00:37.457Z,13.87
2019-03-29T09:03:09.306Z,12.13
2019-03-29T09:05:42.725Z,12.67
2019-03-29T09:08:14.601Z,13.07
2019-03-29T09:10:47.153Z,12.03
2019-03-29T09:13:19.393Z,13.00
2019-03-29T09:15:53.681Z,12.60
2019-03-29T09:18:26.138Z,12.27
2019-03-29T09:20:59.560Z,11.87
2019-03-29T09:23:32.541Z,12.60
2019-03-29T09:26:04.022Z,12.67
2019-03-29T09:28:37.957Z,12.27
2019-03-29T09:31:09.803Z,11.43
2019-03-29T09:33:41.599Z,12.60
2019-03-29T09:36:14.327Z,12.90
2019-03-29T09:38:45.594Z,12.37
2019-03-29T09:41:16.914Z,11.43
2019-03-29T09:43:48.414Z,10.87
2019-03-29T09:46:20.723Z,11.60
2019-03-29T09:48:51.990Z,11.13
2019-03-29T09:51:24.483Z,10.17
2019-03-29T09:53:57.918Z,11.07
2019-03-29T09:56:38.718Z,11.13
2019-03-29T09:59:04.362Z,11.07
2019-03-29T10:01:36.574Z,9.90
2019-03-29T10:04:08.147Z,10.40
2019-03-29T10:06:39.479Z,10.90
2019-03-29T10:09:10.719Z,11.00
2019-03-29T10:11:42.034Z,9.50
2019-03-29T10:14:15.001Z,10.40
2019-03-29T10:16:47.762Z,10.37
2019-03-29T10:19:20.325Z,10.00
2019-03-29T10:21:52.341Z,10.27
2019-03-29T10:24:25.797Z,10.30
2019-03-29T10:26:58.576Z,10.50
2019-03-29T10:29:29.822Z,9.73
2019-03-29T10:32:05.499Z,10.30
2019-03-29T10:34:37.595Z,10.20
2019-03-29T10:37:09.509Z,9.37
2019-03-29T10:39:40.732Z,9.43
2019-03-29T10:42:13.875Z,10.20
2019-03-29T10:44:49.463Z,10.67
2019-03-29T10:47:21.331Z,10.33
2019-03-29T10:49:57.957Z,10.00
2019-03-29T10:52:29.349Z,10.40
2019-03-29T10:55:00.619Z,10.03
2019-03-29T10:57:31.925Z,10.77
2019-03-29T11:00:04.827Z,10.60
2019-03-29T11:02:37.913Z,10.83
2019-03-29T11:05:09.925Z,9.77
2019-03-29T11:07:43.067Z,9.97
2019-03-29T11:10:29.992Z,9.90
2019-03-29T11:13:12.743Z,10.37
2019-03-29T11:15:39.783Z,10.03
2019-03-29T11:18:11.805Z,9.87
2019-03-29T11:20:43.100Z,10.77
2019-03-29T11:23:14.355Z,9.50
2019-03-29T11:25:48.761Z,10.27
2019-03-29T11:28:21.913Z,10.43
2019-03-29T11:30:53.560Z,11.57
2019-03-29T11:33:26.554Z,10.73
2019-03-29T11:35:59.701Z,10.60
2019-03-29T11:38:32.427Z,10.77
2019-03-29T11:41:03.682Z,10.60
2019-03-29T11:43:37.291Z,9.87
2019-03-29T11:46:10.281Z,11.53
2019-03-29T11:48:42.076Z,10.90
2019-03-29T11:51:19.658Z,10.57
2019-03-29T11:53:50.719Z,11.57
2019-03-29T11:56:21.566Z,11.80
2019-03-29T11:58:52.804Z,11.40
2019-03-29T12:01:25.430Z,11.97
2019-03-29T12:03:57.753Z,11.57
2019-03-29T12:06:30.222Z,11.53
2019-03-29T12:09:02.079Z,11.20
2019-03-29T12:11:34.029Z,11.90
2019-03-29T12:14:06.924Z,11.50
2019-03-29T12:16:38.189Z,10.83
2019-03-29T12:19:11.226Z,12.13
2019-03-29T12:21:44.314Z,12.33
2019-03-29T12:24:16.145Z,11.90
2019-03-29T12:26:48.337Z,11.77
2019-03-29T12:29:21.397Z,11.77
2019-03-29T12:31:52.678Z,11.27
2019-03-29T12:34:25.488Z,11.80
2019-03-29T12:36:56.768Z,11.50
2019-03-29T12:39:28.229Z,11.13
2019-03-29T12:42:01.219Z,11.47
2019-03-29T12:44:39.549Z,12.63
2019-03-29T12:47:11.187Z,12.67
2019-03-29T12:49:48.982Z,12.97
2019-03-29T12:52:20.393Z,14.17
2019-03-29T12:54:51.624Z,12.97
2019-03-29T12:57:24.734Z,12.60
2019-03-29T12:59:58.643Z,13.90
2019-03-29T13:02:29.997Z,12.63
2019-03-29T13:05:01.289Z,13.03
2019-03-29T13:07:32.603Z,13.20
2019-03-29T13:10:05.650Z,13.20
2019-03-29T13:12:39.217Z,13.87
2019-03-29T13:15:12.809Z,12.83
2019-03-29T13:17:44.240Z,13.97
2019-03-29T13:20:16.253Z,13.83
2019-03-29T13:22:49.121Z,13.30
2019-03-29T13:25:22.931Z,14.23
2019-03-29T13:27:58.943Z,13.43
2019-03-29T13:30:27.395Z,13.40
2019-03-29T13:32:58.690Z,14.70
2019-03-29T13:35:33.373Z,14.07
2019-03-29T13:38:07.275Z,13.53
2019-03-29T13:40:40.510Z,13.90
2019-03-29T13:43:11.766Z,15.63
2019-03-29T13:45:43.068Z,16.33
2019-03-29T13:48:16.764Z,14.83
2019-03-29T13:50:50.517Z,14.23
2019-03-29T13:53:28.661Z,15.23
2019-03-29T13:55:59.984Z,15.77
2019-03-29T13:58:31.468Z,14.97
2019-03-29T14:01:07.211Z,15.77
2019-03-29T14:03:39.613Z,16.30
2019-03-29T14:06:11.310Z,16.30
2019-03-29T14:08:42.551Z,15.33
2019-03-29T14:11:14.635Z,15.03
2019-03-29T14:13:48.471Z,15.20
2019-03-29T14:16:19.850Z,16.60
2019-03-29T14:18:52.692Z,16.23
2019-03-29T14:21:27.586Z,15.83
2019-03-29T14:24:00.862Z,17.33
2019-03-29T14:26:35.465Z,16.43
2019-03-29T14:29:06.726Z,16.30
2019-03-29T14:31:40.367Z,17.20
2019-03-29T14:34:13.488Z,16.27
2019-03-29T14:36:44.827Z,15.97
2019-03-29T14:39:16.086Z,18.43
2019-03-29T14:41:50.887Z,17.67
2019-03-29T14:44:24.040Z,19.17
2019-03-29T14:47:02.352Z,17.17
2019-03-29T14:49:33.556Z,17.00
2019-03-29T14:52:05.364Z,16.23
2019-03-29T14:54:39.086Z,17.07
2019-03-29T14:57:12.459Z,17.03
2019-03-29T14:59:43.709Z,17.93
2019-03-29T15:02:17.299Z,18.73
2019-03-29T15:04:48.138Z,17.30
2019-03-29T15:07:23.311Z,17.47
2019-03-29T15:09:57.707Z,17.83
2019-03-29T15:12:30.248Z,18.60
2019-03-29T15:15:10.272Z,18.63
2019-03-29T15:17:43.799Z,18.20
2019-03-29T15:20:16.415Z,19.03
2019-03-29T15:22:49.114Z,19.43
2019-03-29T15:25:22.635Z,20.57
2019-03-29T15:27:54.083Z,18.73
2019-03-29T15:30:25.328Z,18.20
2019-03-29T15:32:56.596Z,18.67
2019-03-29T15:35:27.892Z,18.23
2019-03-29T15:37:59.170Z,17.47
2019-03-29T15:40:30.405Z,18.30
2019-03-29T15:43:01.710Z,19.17
2019-03-29T15:45:32.956Z,19.47
2019-03-29T15:48:04.298Z,19.40
2019-03-29T15:50:35.641Z,18.63
2019-03-29T15:53:07.016Z,19.03
2019-03-29T15:55:38.366Z,18.47
2019-03-29T15:58:09.636Z,18.33
2019-03-29T16:00:40.898Z,18.13
2019-03-29T16:03:13.448Z,19.20
2019-03-29T16:05:48.486Z,19.53
2019-03-29T16:08:20.843Z,18.33
2019-03-29T16:10:52.268Z,20.20
2019-03-29T16:13:25.071Z,19.60
2019-03-29T16:15:56.943Z,19.17
2019-03-29T16:18:31.480Z,19.80
2019-03-29T16:21:02.715Z,19.27
2019-03-29T16:23:34.022Z,18.27
2019-03-29T16:26:08.346Z,17.70
2019-03-29T16:28:40.316Z,17.67
2019-03-29T16:31:14.621Z,17.93
2019-03-29T16:33:45.934Z,17.07
2019-03-29T16:36:17.911Z,17.33
2019-03-29T16:38:49.845Z,18.47
2019-03-29T16:41:29.142Z,18.10
2019-03-29T16:44:00.492Z,17.40
2019-03-29T16:46:33.987Z,18.20
2019-03-29T16:49:07.592Z,17.67
2019-03-29T16:51:39.663Z,17.63
2019-03-29T16:54:10.989Z,18.33
2019-03-29T16:56:42.995Z,18.53
2019-03-29T16:59:17.055Z,18.20
2019-03-29T17:01:51.130Z,18.50
2019-03-29T17:04:22.327Z,18.63
2019-03-29T17:06:54.137Z,18.53
2019-03-29T17:09:26.247Z,19.77
2019-03-29T17:11:59.307Z,19.27
2019-03-29T17:14:30.654Z,19.27
2019-03-29T17:17:02.594Z,18.27
2019-03-29T17:19:34.387Z,19.23
2019-03-29T17:22:06.194Z,18.97
2019-03-29T17:24:37.518Z,18.87
2019-03-29T17:27:08.809Z,19.53
2019-03-29T17:29:40.084Z,19.13
2019-03-29T17:32:11.923Z,19.37
2019-03-29T17:34:43.581Z,18.03
2019-03-29T17:37:16.612Z,19.27
2019-03-29T17:39:47.938Z,18.77
2019-03-29T17:42:19.327Z,17.93
2019-03-29T17:44:52.245Z,19.60
2019-03-29T17:47:23.510Z,18.50
2019-03-29T17:49:54.842Z,19.53
2019-03-29T17:52:26.618Z,19.03
2019-03-29T17:54:58.524Z,18.90
2019-03-29T17:57:30.433Z,19.43
2019-03-29T18:00:03.907Z,18.93
2019-03-29T18:02:36.085Z,20.10
2019-03-29T18:05:09.382Z,20.00
2019-03-29T18:07:42.073Z,19.80
2019-03-29T18:10:14.088Z,19.60
2019-03-29T18:12:45.838Z,18.97
2019-03-29T18:15:17.797Z,18.57
2019-03-29T18:17:49.189Z,20.97
2019-03-29T18:20:21.357Z,22.40
2019-03-29T18:23:00.145Z,19.30
2019-03-29T18:25:32.202Z,20.73
2019-03-29T18:28:03.509Z,19.93
2019-03-29T18:30:40.838Z,20.23
2019-03-29T18:33:12.409Z,20.00
2019-03-29T18:35:43.658Z,20.67
2019-03-29T18:38:15.829Z,21.13
2019-03-29T18:40:47.143Z,20.83
2019-03-29T18:43:18.437Z,20.87
2019-03-29T18:45:49.707Z,19.80
2019-03-29T18:48:20.965Z,21.03
2019-03-29T18:50:52.218Z,21.50
2019-03-29T18:53:23.728Z,20.47
2019-03-29T18:55:56.049Z,21.13
2019-03-29T18:58:27.293Z,22.43
2019-03-29T19:00:59.043Z,22.70
2019-03-29T19:03:31.799Z,23.50
2019-03-29T19:06:03.291Z,22.37
2019-03-29T19:08:35.145Z,22.17
2019-03-29T19:11:07.297Z,21.07
2019-03-29T19:13:39.942Z,22.10
2019-03-29T19:16:15.229Z,20.93
2019-03-29T19:18:46.481Z,22.63
2019-03-29T19:21:18.345Z,24.10
2019-03-29T19:23:51.434Z,22.10
2019-03-29T19:26:23.226Z,23.37
2019-03-29T19:28:55.989Z,22.63
2019-03-29T19:31:27.268Z,21.77
2019-03-29T19:34:00.167Z,21.90
2019-03-29T19:36:32.590Z,22.73
2019-03-29T19:39:06.099Z,24.83
2019-03-29T19:41:37.370Z,23.30
2019-03-29T19:44:08.615Z,22.80
2019-03-29T19:46:39.871Z,22.40
2019-03-29T19:49:11.110Z,23.87
2019-03-29T19:51:42.354Z,24.83
2019-03-29T19:54:13.927Z,23.83
2019-03-29T19:56:45.316Z,25.17
2019-03-29T19:59:16.626Z,23.80
2019-03-29T20:01:47.928Z,22.93
2019-03-29T20:04:19.265Z,23.53
2019-03-29T20:06:50.499Z,24.47
2019-03-29T20:09:23.267Z,23.80
2019-03-29T20:11:54.548Z,25.73
2019-03-29T20:14:25.852Z,25.97
2019-03-29T20:16:57.104Z,28.17
2019-03-29T20:19:28.413Z,30.67
2019-03-29T20:22:00.530Z,33.10
2019-03-29T20:24:31.898Z,34.50
2019-03-29T20:27:03.334Z,34.97
2019-03-29T20:29:35.472Z,29.40
2019-03-29T20:32:07.815Z,28.30
2019-03-29T20:34:39.907Z,28.43
2019-03-29T20:37:12.226Z,28.37
2019-03-29T20:39:45.203Z,27.33
2019-03-29T20:42:17.283Z,27.83
2019-03-29T20:44:48.978Z,26.50
2019-03-29T20:47:21.781Z,25.77
2019-03-29T20:49:53.089Z,25.13
2019-03-29T20:52:26.749Z,24.00
2019-03-29T20:54:59.190Z,23.33
2019-03-29T20:57:32.606Z,22.33
2019-03-29T21:00:07.029Z,24.07
2019-03-29T21:02:38.346Z,25.27
2019-03-29T21:05:10.339Z,25.17
2019-03-29T21:07:41.676Z,25.13
2019-03-29T21:10:13.181Z,23.20
2019-03-29T21:12:48.431Z,23.17
2019-03-29T21:15:21.281Z,23.77
2019-03-29T21:17:57.884Z,22.57
2019-03-29T21:20:28.974Z,23.27
2019-03-29T21:23:00.314Z,23.90
2019-03-29T21:25:31.687Z,24.60
2019-03-29T21:28:03.157Z,24.50
2019-03-29T21:30:34.560Z,24.93
2019-03-29T21:33:07.876Z,23.23
2019-03-29T21:35:39.147Z,24.10
2019-03-29T21:38:12.866Z,23.67
2019-03-29T21:40:44.217Z,23.47
2019-03-29T21:43:16.878Z,22.83
2019-03-29T21:45:49.913Z,23.17
2019-03-29T21:48:28.664Z,23.80
2019-03-29T21:50:54.307Z,23.90
2019-03-29T21:53:25.854Z,24.50
2019-03-29T21:55:57.145Z,23.80
2019-03-29T21:58:29.046Z,24.47
2019-03-29T22:01:01.211Z,23.63
2019-03-29T22:03:32.559Z,24.47
2019-03-29T22:06:04.771Z,24.90
2019-03-29T22:08:36.058Z,23.27
2019-03-29T22:11:08.433Z,22.80
2019-03-29T22:13:44.153Z,24.67
2019-03-29T22:16:15.843Z,25.13
2019-03-29T22:18:47.304Z,25.80
2019-03-29T22:21:18.697Z,27.07
2019-03-29T22:23:52.621Z,28.73
2019-03-29T22:26:23.939Z,30.77
2019-03-29T22:28:55.242Z,33.30
2019-03-29T22:31:29.152Z,35.47
2019-03-29T22:34:09.339Z,27.30
2019-03-29T22:36:40.713Z,21.57
2019-03-29T22:39:12.309Z,26.70
2019-03-29T22:41:43.575Z,28.40
2019-03-29T22:44:14.839Z,29.63
2019-03-29T22:46:46.347Z,29.13
2019-03-29T22:49:17.644Z,27.80
2019-03-29T22:51:49.667Z,27.10
2019-03-29T22:54:21.500Z,24.03
2019-03-29T22:56:54.380Z,26.67
2019-03-29T22:59:29.291Z,24.73
2019-03-29T23:02:01.399Z,24.97
2019-03-29T23:04:34.081Z,24.30
2019-03-29T23:07:07.077Z,24.13
2019-03-29T23:09:39.364Z,22.40
2019-03-29T23:12:13.004Z,24.27
2019-03-29T23:14:44.871Z,24.77
2019-03-29T23:17:17.461Z,24.03
2019-03-29T23:19:50.195Z,22.77
2019-03-29T23:22:23.320Z,22.30
2019-03-29T23:24:54.683Z,23.70
2019-03-29T23:27:28.321Z,22.63
2019-03-29T23:29:59.960Z,22.53
2019-03-29T23:32:32.522Z,22.37
2019-03-29T23:35:04.987Z,22.77
2019-03-29T23:37:36.586Z,22.23
2019-03-29T23:40:09.760Z,22.40
2019-03-29T23:42:42.689Z,22.03
2019-03-29T23:45:16.215Z,22.43
2019-03-29T23:47:47.976Z,23.03
2019-03-29T23:50:20.837Z,22.77
2019-03-29T23:52:52.101Z,21.07
2019-03-29T23:55:23.427Z,23.17
2019-03-29T23:57:56.892Z,22.20
